Flight Track Log - Related Links

Times and Time Zones

All times are in EDT time to prevent confusion due to time zone crossing. See the N80788 flight status page for this flight to view local times or setup timezone preferences in your user account.

Time Position Orientation Groundspeed Altitude Reporting Facility
EDT Latitude Longitude Course Direction KTS MPH feet Rate Location/Type
Sun 07:19:00 PM 39.4252 -74.5749 14° North  Level FlightAware Approximate
Sun 07:20:00 PM 39.4512 -74.5724 285° West  Level FlightAware Approximate
Sun 07:20:43 PM 39.4167 -74.8500 285° West 118 136 4,000  Level Philadelphia TRACON
Sun 07:20:55 PM 39.4167 -74.8667 270° West 119 137 4,000  Level Philadelphia TRACON
Sun 07:21:00 PM 39.4591 -74.6101 285° West  Level FlightAware Approximate
Sun 07:21:55 PM 39.4333 -74.9000 303° West 120 138 4,000  Level Philadelphia TRACON
Sun 07:22:00 PM 39.4670 -74.6479 285° West  Level FlightAware Approximate
Sun 07:22:55 PM 39.4500 -74.9333 303° West 119 137 4,000  Level Philadelphia TRACON
Sun 07:23:00 PM 39.4749 -74.6856 285° West  Level FlightAware Approximate
Sun 07:23:55 PM 39.4667 -74.9667 303° West 116 133 4,000  Level Philadelphia TRACON
Sun 07:24:00 PM 39.4828 -74.7234 285° West  Level FlightAware Approximate
Sun 07:24:55 PM 39.4833 -75.0000 303° West 116 133 4,000  Level Philadelphia TRACON
Sun 07:25:00 PM 39.4907 -74.7612 285° West  Level FlightAware Approximate
Sun 07:25:56 PM 39.5000 -75.0500 293° West 115 132 4,000  Level Philadelphia TRACON
Sun 07:26:00 PM 39.4986 -74.7990 285° West  Level FlightAware Approximate
Sun 07:26:56 PM 39.5167 -75.0833 303° West 116 133 4,000  Level Philadelphia TRACON
Sun 07:27:56 PM 39.5333 -75.1167 303° West 117 135 4,000  Level Philadelphia TRACON
Sun 07:28:56 PM 39.5333 -75.1500 270° West 114 131 4,000  Level Philadelphia TRACON
Sun 07:29:56 PM 39.5500 -75.2000 293° West 115 132 4,000  Level Philadelphia TRACON
Sun 07:30:56 PM 39.5667 -75.2333 303° West 112 129 4,000  Level Philadelphia TRACON
Sun 07:31:56 PM 39.5667 -75.2667 270° West 116 133 4,000  Level Philadelphia TRACON
Sun 07:32:56 PM 39.5833 -75.3167 293° West 114 131 4,000  Level Philadelphia TRACON
Sun 07:34:02 PM 39.6000 -75.3500 303° West 115 132 4,000  Level Philadelphia TRACON
Sun 07:35:02 PM 39.6000 -75.4000 270° West 114 131 4,000  Level Philadelphia TRACON
Sun 07:35:56 PM 39.6167 -75.4333 303° West 118 136 4,000  Level Philadelphia TRACON
Sun 07:36:56 PM 39.6333 -75.4667 303° West 115 132 4,000  Level Philadelphia TRACON
Sun 07:37:56 PM 39.6500 -75.5000 303° West 115 132 4,000  Level Philadelphia TRACON
Sun 07:38:56 PM 39.6667 -75.5333 303° West 115 132 4,000  Level Philadelphia TRACON
Sun 07:40:02 PM 39.6833 -75.5833 293° West 116 133 4,000  Level Philadelphia TRACON
Sun 07:40:57 PM 39.7000 -75.6167 303° West 115 132 4,000  Level Philadelphia TRACON
Sun 07:41:57 PM 39.7167 -75.6500 303° West 114 131 4,000  Level Philadelphia TRACON
Sun 07:43:02 PM 39.7333 -75.6833 303° West 115 132 4,000  Level Philadelphia TRACON
Sun 07:44:03 PM 39.7500 -75.7167 303° West 114 131 4,000  Level Philadelphia TRACON
Sun 07:45:03 PM 39.7667 -75.7500 303° West 115 132 4,000  Level Philadelphia TRACON
Sun 07:46:03 PM 39.7833 -75.7833 303° West 114 131 4,000  Level Philadelphia TRACON
Sun 07:46:57 PM 39.8000 -75.8167 303° West 116 133 4,000  Level Philadelphia TRACON
Sun 07:48:03 PM 39.8167 -75.8667 293° West 117 135 4,000  Level Philadelphia TRACON
Sun 07:48:57 PM 39.8333 -75.9000 303° West 117 135 4,000  Level Philadelphia TRACON
Sun 07:49:57 PM 39.8500 -75.9333 303° West 116 133 4,000  Level Philadelphia TRACON
Sun 07:51:00 PM 39.8592 -75.9729 287° West  Level FlightAware Approximate
Sun 07:58:00 PM 39.9367 -76.2324 300° West  Level FlightAware Approximate
Sun 07:59:00 PM 39.9519 -76.2664 300° West  Level FlightAware Approximate
Sun 08:00:00 PM 39.9671 -76.3005 300° West  Level FlightAware Approximate
Sun 08:01:00 PM 39.9822 -76.3346 300° West  Level FlightAware Approximate
Sun 08:02:00 PM 39.9973 -76.3687 300° West  Level FlightAware Approximate
Sun 08:03:00 PM 40.0125 -76.4029 300° West  Level FlightAware Approximate
Sun 08:04:00 PM 40.0276 -76.4370 300° West  Level FlightAware Approximate
Sun 08:05:00 PM 40.0426 -76.4712 300° West  Level FlightAware Approximate
Sun 08:06:00 PM 40.0576 -76.5055 300° West  Level FlightAware Approximate
Sun 08:07:00 PM 40.0725 -76.5398 300° West  Level FlightAware Approximate
Sun 08:08:00 PM 40.0874 -76.5741 300° West  Level FlightAware Approximate
Sun 08:09:00 PM 40.1024 -76.6085 300° West  Level FlightAware Approximate
Sun 08:10:00 PM 40.1173 -76.6428 300° West  Level FlightAware Approximate
Sun 08:11:00 PM 40.1322 -76.6771 300° West  Level FlightAware Approximate
Sun 08:12:00 PM 40.1471 -76.7115 300° West  Level FlightAware Approximate
Sun 08:13:00 PM 40.1620 -76.7459 300° West  Level FlightAware Approximate
Sun 08:14:00 PM 40.1768 -76.7803 300° West  Level FlightAware Approximate
Sun 08:15:00 PM 40.1932 -76.7626 299° West  Level Estimated
Sun 08:16:00 PM 40.1932 -76.7626 295° West  Level Estimated
Sun 08:17:00 PM 40.1932 -76.7626 295° West  Level Estimated
Sun 08:18:00 PM 40.1932 -76.7626 295° West  Level Estimated
Sun 08:19:00 PM 40.1932 -76.7626 295° West  Level Estimated
Sun 08:20:00 PM 40.1932 -76.7626 295° West  Level Estimated
Sun 08:21:00 PM 40.1932 -76.7626 295° West  Level Estimated
Sun 08:22:00 PM 40.1932 -76.7626 295° West  Level Estimated
Sun 08:23:00 PM 40.1932 -76.7626 116° Southeast  Level Estimated
Sun 08:24:00 PM 40.1932 -76.7626 294° West  Level Estimated

Login

Don't have an account? Register now (free) for customized features, flight alerts, and more!